Time;durP1;ratioP1;P1;durP2;ratioP2;P2;SDS_P1;SDS_P2;PMS_P1;PMS_P2;Temp;Humidity;BMP_temperature;BMP_pressure;BME280_temperature;BME280_humidity;BME280_pressure;Samples;Min_cycle;Max_cycle;Signal;HPM_P1;HPM_P2
2022/04/21 00:01:24;;;;;;;5.95;1.85;;;14.40;47.20;;;;;;5069752;28;20484;-60
2022/04/21 00:03:50;;;;;;;1.50;1.40;;;14.40;47.70;;;;;;5054078;28;20115;-60
2022/04/21 00:06:16;;;;;;;1.40;1.00;;;14.30;47.80;;;;;;5069687;28;20111;-60
2022/04/21 00:08:42;;;;;;;1.23;0.90;;;14.30;47.90;;;;;;5065112;28;20539;-64
2022/04/21 00:11:08;;;;;;;2.80;1.20;;;14.30;48.00;;;;;;5068710;28;20116;-65
2022/04/21 00:13:34;;;;;;;1.98;1.58;;;14.30;48.10;;;;;;5063407;28;20059;-61
2022/04/21 00:16:00;;;;;;;1.20;1.10;;;14.20;48.30;;;;;;5078939;28;20020;-60
2022/04/21 00:18:26;;;;;;;1.75;1.13;;;14.20;48.40;;;;;;5070224;28;20055;-60
2022/04/21 00:20:52;;;;;;;1.75;1.65;;;14.20;48.60;;;;;;5101248;28;20051;-60
2022/04/21 00:23:26;;;;;;;1.73;1.05;;;14.20;48.60;;;;;;5080808;28;20115;-64
2022/04/21 00:25:53;;;;;;;4.55;1.20;;;14.10;48.60;;;;;;5098687;28;20060;-64
2022/04/21 00:28:20;;;;;;;1.10;0.98;;;14.20;48.90;;;;;;5082717;28;20414;-64
2022/04/21 00:30:45;;;;;;;1.23;1.13;;;14.10;49.00;;;;;;5066269;28;20020;-65
2022/04/21 00:33:11;;;;;;;6.50;1.13;;;14.10;49.20;;;;;;5067507;28;20047;-66
2022/04/21 00:35:36;;;;;;;1.25;1.15;;;14.10;49.50;;;;;;5067058;28;20037;-64
2022/04/21 00:38:02;;;;;;;6.20;1.17;;;14.10;49.70;;;;;;5068618;28;20472;-60
2022/04/21 00:40:30;;;;;;;2.10;1.30;;;14.00;49.80;;;;;;5077630;28;20032;-61
2022/04/21 00:42:57;;;;;;;1.98;1.58;;;14.00;50.30;;;;;;5076469;28;20120;-65
2022/04/21 00:45:23;;;;;;;1.70;1.60;;;14.00;50.50;;;;;;5085850;28;20081;-64
2022/04/21 00:47:50;;;;;;;1.17;1.10;;;13.90;50.50;;;;;;5067134;28;20032;-65
2022/04/21 00:50:31;;;;;;;1.60;1.25;;;13.90;51.30;;;;;;5077256;28;20040;-64
2022/04/21 00:52:58;;;;;;;3.47;1.58;;;13.90;51.10;;;;;;5056296;28;20098;-64
2022/04/21 00:55:24;;;;;;;3.67;1.60;;;13.90;51.20;;;;;;5068341;28;20382;-64
2022/04/21 00:57:52;;;;;;;1.98;1.58;;;13.80;51.60;;;;;;5074747;28;20061;-64
2022/04/21 01:00:18;;;;;;;1.88;1.27;;;13.80;51.80;;;;;;5074788;28;20028;-64
2022/04/21 01:02:50;;;;;;;2.05;1.48;;;13.80;52.00;;;;;;5074854;28;20422;-64
2022/04/21 01:05:28;;;;;;;2.63;1.42;;;13.80;52.60;;;;;;5065746;28;20029;-59
2022/04/21 01:07:59;;;;;;;1.38;0.90;;;13.80;52.30;;;;;;5058201;28;20021;-64
2022/04/21 01:10:26;;;;;;;1.30;1.20;;;13.70;52.50;;;;;;5076024;28;20107;-64
2022/04/21 01:12:52;;;;;;;1.58;1.20;;;13.60;52.60;;;;;;5054634;28;20033;-64
2022/04/21 01:15:18;;;;;;;2.50;1.35;;;13.60;52.90;;;;;;5075565;28;20028;-64
2022/04/21 01:17:45;;;;;;;3.03;1.17;;;13.50;53.10;;;;;;5074104;28;20055;-64
2022/04/21 01:20:21;;;;;;;2.28;1.88;;;13.60;53.30;;;;;;5076296;28;20494;-60
2022/04/21 01:22:48;;;;;;;1.20;1.10;;;13.50;53.40;;;;;;5054420;28;20377;-61
2022/04/21 01:25:13;;;;;;;1.90;1.70;;;13.50;53.60;;;;;;5080457;28;20025;-60
2022/04/21 01:27:41;;;;;;;1.73;1.40;;;13.40;53.80;;;;;;5074231;28;20058;-64
2022/04/21 01:30:09;;;;;;;4.88;1.70;;;13.40;54.00;;;;;;5065992;28;20029;-60
2022/04/21 01:32:38;;;;;;;1.33;0.93;;;13.30;54.00;;;;;;5059112;28;20025;-60
2022/04/21 01:35:06;;;;;;;2.10;1.83;;;13.30;54.10;;;;;;5081182;28;20081;-64
2022/04/21 01:43:02;;;;;;;2.28;1.52;;;13.30;54.60;;;;;;5058790;28;20073;-60
2022/04/21 01:45:28;;;;;;;6.30;1.73;;;13.30;54.60;;;;;;5070727;28;20395;-64
2022/04/21 01:47:56;;;;;;;1.85;1.27;;;13.30;55.40;;;;;;5069812;28;20112;-64
2022/04/21 01:50:22;;;;;;;1.67;1.55;;;13.30;54.80;;;;;;5060520;28;20052;-64
2022/04/21 01:52:48;;;;;;;2.35;1.48;;;13.20;54.80;;;;;;5055712;28;20036;-64
2022/04/21 01:55:14;;;;;;;4.32;1.65;;;13.20;54.90;;;;;;5078139;28;20456;-64
2022/04/21 01:57:39;;;;;;;2.17;1.73;;;13.20;55.10;;;;;;5067739;28;20032;-64
2022/04/21 02:00:07;;;;;;;1.55;1.35;;;13.20;55.10;;;;;;5067619;28;20043;-65
2022/04/21 02:02:33;;;;;;;4.10;1.45;;;13.20;55.10;;;;;;5079217;28;20020;-60
2022/04/21 02:05:00;;;;;;;19.83;1.50;;;13.20;55.20;;;;;;5082193;28;20036;-61
2022/04/21 02:07:27;;;;;;;1.70;1.60;;;13.20;55.30;;;;;;5068681;28;20466;-60
2022/04/21 02:09:53;;;;;;;3.67;1.80;;;13.10;55.30;;;;;;5099851;28;20025;-60
2022/04/21 02:12:21;;;;;;;1.95;1.27;;;13.10;55.40;;;;;;5066721;28;20391;-60
2022/04/21 02:14:47;;;;;;;3.20;1.58;;;13.10;55.40;;;;;;5079430;28;20111;-60
2022/04/21 02:17:13;;;;;;;1.90;1.20;;;13.00;55.50;;;;;;5050039;28;20457;-64
2022/04/21 02:19:38;;;;;;;1.67;1.33;;;13.00;55.70;;;;;;5073800;28;20104;-64
2022/04/21 02:22:04;;;;;;;1.40;1.08;;;12.90;55.60;;;;;;5058373;28;20115;-64
2022/04/21 02:24:30;;;;;;;2.20;1.35;;;12.90;55.80;;;;;;5100163;28;20107;-60
2022/04/21 02:26:55;;;;;;;4.05;1.40;;;12.90;55.80;;;;;;5067487;28;20024;-61
2022/04/21 02:29:21;;;;;;;2.53;1.30;;;12.90;55.70;;;;;;5074530;28;20032;-60
2022/04/21 02:31:47;;;;;;;1.40;1.30;;;12.80;55.70;;;;;;5048793;28;20094;-65
2022/04/21 02:34:12;;;;;;;2.85;1.38;;;12.80;55.70;;;;;;5079523;28;20330;-61
2022/04/21 02:36:38;;;;;;;1.27;1.02;;;12.80;55.80;;;;;;5057118;28;20040;-60
2022/04/21 02:39:04;;;;;;;1.95;1.40;;;12.80;55.90;;;;;;5086290;28;20372;-65
2022/04/21 02:41:30;;;;;;;3.25;1.33;;;12.70;55.90;;;;;;5060842;28;20024;-65
2022/04/21 02:43:56;;;;;;;1.95;1.35;;;12.70;55.90;;;;;;5074693;28;20040;-65
2022/04/21 02:46:27;;;;;;;1.27;1.15;;;12.70;56.00;;;;;;5071679;28;20036;-64
2022/04/21 02:48:55;;;;;;;1.15;1.02;;;12.70;56.00;;;;;;5052232;28;20028;-65
2022/04/21 02:51:21;;;;;;;1.55;1.20;;;12.70;56.00;;;;;;5051733;28;20049;-64
2022/04/21 02:59:16;;;;;;;1.38;1.13;;;12.60;56.00;;;;;;5055369;28;20098;-65
2022/04/21 03:01:41;;;;;;;1.15;1.05;;;12.60;56.30;;;;;;5073234;28;20040;-64
2022/04/21 03:04:07;;;;;;;1.27;1.17;;;12.60;56.30;;;;;;5058723;28;20411;-65
2022/04/21 03:06:33;;;;;;;1.67;1.50;;;12.50;56.50;;;;;;5059063;28;20037;-65
2022/04/21 03:08:58;;;;;;;1.50;1.40;;;12.50;56.70;;;;;;5053843;28;20107;-65
2022/04/21 03:11:24;;;;;;;1.30;1.20;;;12.50;56.70;;;;;;5081832;28;20032;-65
2022/04/21 03:13:49;;;;;;;1.02;0.98;;;12.50;56.70;;;;;;5068286;28;20471;-65
2022/04/21 03:16:15;;;;;;;2.55;1.60;;;12.50;56.70;;;;;;5062104;28;20033;-65
2022/04/21 03:18:41;;;;;;;1.40;1.30;;;12.40;56.80;;;;;;5056286;28;20467;-64
2022/04/21 03:26:34;;;;;;;1.13;0.73;;;12.30;56.60;;;;;;5057304;28;20502;-61
2022/04/21 03:29:00;;;;;;;1.63;1.35;;;12.30;56.80;;;;;;5076497;28;20025;-65
2022/04/21 03:31:26;;;;;;;1.60;1.25;;;12.30;57.10;;;;;;5054292;28;20468;-61
2022/04/21 03:33:51;;;;;;;1.52;1.33;;;12.30;57.40;;;;;;5071689;28;20488;-61
2022/04/21 03:36:17;;;;;;;0.90;0.90;;;12.30;57.40;;;;;;5071447;28;20029;-61
2022/04/21 03:38:43;;;;;;;3.80;1.33;;;12.20;57.50;;;;;;5066398;28;20029;-61
2022/04/21 03:41:09;;;;;;;1.50;1.08;;;12.20;57.50;;;;;;5081338;28;20480;-65
2022/04/21 03:43:35;;;;;;;1.30;1.20;;;12.20;57.60;;;;;;5073186;28;20037;-65
2022/04/21 03:46:00;;;;;;;1.20;1.00;;;12.20;57.70;;;;;;5058783;28;20040;-65
2022/04/21 03:48:26;;;;;;;1.50;1.40;;;12.10;57.90;;;;;;5048896;28;20383;-61
2022/04/21 03:50:52;;;;;;;1.52;1.13;;;12.10;57.90;;;;;;5081088;28;20415;-61
2022/04/21 03:53:17;;;;;;;1.38;1.02;;;12.10;58.20;;;;;;5062467;28;20480;-60
2022/04/21 03:55:43;;;;;;;3.40;1.80;;;12.10;58.40;;;;;;5056838;28;20082;-61
2022/04/21 03:58:08;;;;;;;1.20;1.10;;;12.00;58.50;;;;;;5067407;28;20028;-61
2022/04/21 04:00:34;;;;;;;2.05;1.27;;;12.00;58.60;;;;;;5081461;28;20564;-65
2022/04/21 04:03:00;;;;;;;1.55;1.23;;;11.90;58.90;;;;;;5073011;28;20036;-65
2022/04/21 04:05:25;;;;;;;1.60;1.48;;;11.90;59.00;;;;;;5062033;28;20090;-66
2022/04/21 04:10:53;;;;;;;1.55;1.45;;;11.80;59.00;;;;;;5073761;28;20055;-63
2022/04/21 04:13:24;;;;;;;1.88;1.40;;;11.70;59.20;;;;;;5061469;28;20359;-65
2022/04/21 04:15:51;;;;;;;1.02;0.80;;;11.70;59.30;;;;;;5068523;28;20028;-65
2022/04/21 04:18:18;;;;;;;1.35;0.80;;;11.70;59.40;;;;;;5071011;28;20040;-65
2022/04/21 04:20:44;;;;;;;2.55;1.20;;;11.70;59.50;;;;;;5068085;28;20056;-65
2022/04/21 04:23:10;;;;;;;2.45;1.67;;;11.60;59.50;;;;;;5082114;28;20467;-65
2022/04/21 04:25:36;;;;;;;1.42;1.33;;;11.60;59.50;;;;;;5067905;28;20078;-66
2022/04/21 04:28:05;;;;;;;2.03;1.50;;;11.60;59.50;;;;;;5071077;28;20507;-65
2022/04/21 04:30:34;;;;;;;1.98;1.52;;;11.60;59.90;;;;;;5065487;28;20032;-65
2022/04/21 04:33:00;;;;;;;2.55;1.63;;;11.50;60.00;;;;;;5065941;28;20020;-61
2022/04/21 04:35:26;;;;;;;1.77;1.05;;;11.50;60.10;;;;;;5071255;28;20089;-61
2022/04/21 04:37:52;;;;;;;1.85;1.10;;;11.50;60.10;;;;;;5064208;28;20020;-65
2022/04/21 04:40:19;;;;;;;2.80;1.27;;;11.50;60.40;;;;;;5067118;28;20041;-65
2022/04/21 04:42:44;;;;;;;0.93;0.73;;;11.40;60.60;;;;;;5068489;28;20037;-61
2022/04/21 04:47:54;;;;;;;1.65;1.45;;;11.40;60.60;;;;;;5067483;28;20039;-61
2022/04/21 04:50:20;;;;;;;1.35;1.00;;;11.40;60.70;;;;;;5067933;28;20056;-61
2022/04/21 04:52:47;;;;;;;2.22;1.45;;;11.30;60.70;;;;;;5070772;28;20480;-65
2022/04/21 04:55:13;;;;;;;1.20;1.10;;;11.30;60.90;;;;;;5065500;28;20028;-65
2022/04/21 04:57:39;;;;;;;0.98;0.95;;;11.30;60.90;;;;;;5069642;28;20555;-66
2022/04/21 05:00:06;;;;;;;1.65;1.30;;;11.30;61.00;;;;;;5069295;28;20024;-65
2022/04/21 05:02:32;;;;;;;2.72;1.05;;;11.30;61.10;;;;;;5068266;28;20155;-66
2022/04/21 05:04:58;;;;;;;1.15;0.88;;;11.40;61.10;;;;;;5066824;28;20534;-62
2022/04/21 05:07:24;;;;;;;3.10;1.35;;;11.40;60.90;;;;;;5069553;28;20085;-61
2022/04/21 05:09:49;;;;;;;0.80;0.80;;;11.30;60.80;;;;;;5069419;28;20104;-61
2022/04/21 05:12:15;;;;;;;2.10;1.20;;;11.30;60.90;;;;;;5067849;28;20029;-61
2022/04/21 05:14:41;;;;;;;2.17;1.60;;;11.30;60.90;;;;;;5070627;28;20048;-61
2022/04/21 05:17:07;;;;;;;1.73;1.05;;;11.40;61.00;;;;;;5070325;28;20033;-62
2022/04/21 05:19:32;;;;;;;1.42;1.30;;;11.30;61.00;;;;;;5082535;28;20130;-61
2022/04/21 05:22:03;;;;;;;3.58;1.50;;;11.30;61.00;;;;;;5067310;28;20562;-61
2022/04/21 05:24:31;;;;;;;3.88;1.67;;;11.30;61.10;;;;;;5069599;28;20463;-61
2022/04/21 05:26:57;;;;;;;21.10;1.27;;;11.30;61.10;;;;;;5064742;28;20025;-60
2022/04/21 05:32:08;;;;;;;1.25;1.15;;;11.30;61.00;;;;;;5075347;28;20450;-61
2022/04/21 05:34:34;;;;;;;1.48;1.13;;;11.30;61.00;;;;;;5065783;28;20067;-65
2022/04/21 05:37:01;;;;;;;1.35;0.85;;;11.30;61.10;;;;;;5067870;28;20021;-66
2022/04/21 05:39:28;;;;;;;1.17;0.88;;;11.40;61.20;;;;;;5073698;28;20098;-65
2022/04/21 05:41:57;;;;;;;0.70;0.70;;;11.40;61.20;;;;;;5066964;28;20428;-65
2022/04/21 05:44:23;;;;;;;2.38;1.02;;;11.50;61.20;;;;;;5076628;28;20078;-65
2022/04/21 05:46:50;;;;;;;1.52;1.02;;;11.40;61.00;;;;;;5070689;28;20063;-65
2022/04/21 05:49:17;;;;;;;1.45;1.05;;;11.40;60.90;;;;;;5068430;28;20028;-65
2022/04/21 05:51:44;;;;;;;7.32;0.93;;;11.40;61.00;;;;;;5070873;28;20063;-65
2022/04/21 05:54:10;;;;;;;0.77;0.77;;;11.40;61.00;;;;;;5067385;28;20025;-65
2022/04/21 05:56:36;;;;;;;0.93;0.93;;;11.40;61.00;;;;;;5066744;28;20553;-66
2022/04/21 05:59:03;;;;;;;5.97;1.08;;;11.50;60.90;;;;;;5066943;28;20029;-66
2022/04/21 06:01:30;;;;;;;0.60;0.60;;;11.50;60.90;;;;;;5075263;28;20067;-66
2022/04/21 06:03:56;;;;;;;2.75;0.88;;;11.50;61.00;;;;;;5072502;28;20509;-61
2022/04/21 06:06:22;;;;;;;0.82;0.80;;;11.50;61.00;;;;;;5066874;28;20379;-61
2022/04/21 06:08:47;;;;;;;1.17;1.00;;;11.60;60.90;;;;;;5072507;28;20042;-61
2022/04/21 06:11:13;;;;;;;2.03;1.05;;;11.60;60.80;;;;;;5071511;28;20468;-60
2022/04/21 06:13:43;;;;;;;1.45;0.90;;;11.60;60.80;;;;;;5066838;28;20025;-61
2022/04/21 06:16:09;;;;;;;3.20;1.08;;;11.70;60.80;;;;;;5082504;28;20514;-60
2022/04/21 06:18:37;;;;;;;1.15;0.95;;;11.70;60.70;;;;;;5066714;28;20033;-60
2022/04/21 06:21:05;;;;;;;0.98;0.95;;;11.70;60.80;;;;;;5080642;28;20492;-60
2022/04/21 06:23:31;;;;;;;1.15;0.75;;;11.70;60.60;;;;;;5071854;28;20024;-60
2022/04/21 06:25:59;;;;;;;1.35;0.70;;;11.70;60.60;;;;;;5068522;28;20570;-61
2022/04/21 06:28:25;;;;;;;1.65;1.45;;;11.70;60.60;;;;;;5066717;28;20028;-60
2022/04/21 06:30:51;;;;;;;1.00;0.93;;;11.70;60.80;;;;;;5073022;28;20031;-60
2022/04/21 06:33:17;;;;;;;1.25;0.93;;;11.70;60.80;;;;;;5066494;28;20502;-60
2022/04/21 06:35:44;;;;;;;1.92;1.35;;;11.80;60.80;;;;;;5115848;27;20031;-59
2022/04/21 06:38:11;;;;;;;1.40;0.98;;;11.80;60.90;;;;;;5071565;28;20031;-60
2022/04/21 06:40:37;;;;;;;1.38;1.27;;;11.90;60.70;;;;;;5070619;28;20488;-60
2022/04/21 06:48:01;;;;;;;3.10;1.20;;;11.90;60.80;;;;;;5060552;28;20499;-60
2022/04/21 06:48:33;;;;;;;5.35;0.80;;;12.00;60.60;;;;;;5095546;27;20115;-60
2022/04/21 06:50:59;;;;;;;1.98;1.38;;;12.00;60.70;;;;;;5066662;28;20049;-59
2022/04/21 06:53:24;;;;;;;0.80;0.73;;;12.10;60.60;;;;;;5066401;28;20078;-59
2022/04/21 06:55:50;;;;;;;1.20;1.02;;;12.10;60.40;;;;;;5092801;28;20032;-60
2022/04/21 06:58:15;;;;;;;1.38;0.73;;;12.10;60.50;;;;;;5064914;28;20020;-60
2022/04/21 07:00:41;;;;;;;1.75;1.05;;;12.20;60.30;;;;;;5069350;28;20058;-60
2022/04/21 07:03:08;;;;;;;0.93;0.80;;;12.20;60.10;;;;;;5065399;28;20032;-60
2022/04/21 07:05:34;;;;;;;2.42;0.98;;;12.30;59.80;;;;;;5061833;28;20043;-65
2022/04/21 07:08:00;;;;;;;0.73;0.73;;;12.30;59.40;;;;;;5051613;28;20037;-65
2022/04/21 07:10:26;;;;;;;4.38;0.90;;;12.40;59.10;;;;;;5062166;28;20078;-60
2022/04/21 07:12:51;;;;;;;0.88;0.75;;;12.40;59.00;;;;;;5062525;28;20033;-60
2022/04/21 07:15:17;;;;;;;1.35;0.93;;;12.40;58.70;;;;;;5063024;28;20040;-60
2022/04/21 07:17:43;;;;;;;1.58;1.05;;;12.50;58.50;;;;;;5058046;28;20025;-60
2022/04/21 07:20:11;;;;;;;1.08;1.00;;;12.50;58.10;;;;;;5060524;28;20021;-59
2022/04/21 07:22:37;;;;;;;1.10;0.82;;;12.60;58.00;;;;;;5053037;28;20055;-65
2022/04/21 07:25:09;;;;;;;2.25;1.15;;;12.70;57.80;;;;;;5070701;28;20029;-60
2022/04/21 07:27:36;;;;;;;0.80;0.73;;;12.70;57.20;;;;;;5061979;28;20103;-61
2022/04/21 07:30:02;;;;;;;0.63;0.60;;;12.70;56.90;;;;;;5059448;28;20028;-59
2022/04/21 07:32:28;;;;;;;2.20;1.13;;;12.80;56.70;;;;;;5063016;28;20459;-59
2022/04/21 07:34:54;;;;;;;1.70;1.08;;;12.80;56.50;;;;;;5080451;28;20028;-60
2022/04/21 07:37:21;;;;;;;4.53;1.05;;;12.90;56.50;;;;;;5058184;28;20388;-60
2022/04/21 07:39:46;;;;;;;0.80;0.73;;;13.00;56.40;;;;;;5055844;28;20056;-60
2022/04/21 07:42:13;;;;;;;3.30;0.63;;;13.10;55.70;;;;;;5071070;28;20090;-65
2022/04/21 07:44:39;;;;;;;1.45;1.10;;;13.10;55.70;;;;;;5061419;28;20593;-60
2022/04/21 07:47:06;;;;;;;0.85;0.70;;;13.20;55.40;;;;;;5060357;28;20033;-65
2022/04/21 07:49:50;;;;;;;2.42;0.88;;;13.20;54.60;;;;;;5051949;28;20449;-65
2022/04/21 07:55:25;;;;;;;0.43;0.40;;;13.40;54.40;;;;;;5054533;28;20537;-66
2022/04/21 07:57:55;;;;;;;0.77;0.77;;;13.40;54.20;;;;;;5051232;28;20030;-66
2022/04/21 08:00:22;;;;;;;0.70;0.70;;;13.50;54.10;;;;;;5050689;28;20170;-66
2022/04/21 08:02:49;;;;;;;3.63;0.90;;;13.60;54.10;;;;;;5062726;28;20496;-66
2022/04/21 08:05:18;;;;;;;0.30;0.30;;;13.70;54.10;;;;;;5047051;28;20396;-66
2022/04/21 08:07:47;;;;;;;0.98;0.70;;;13.80;53.70;;;;;;5068296;28;20020;-66
2022/04/21 08:10:14;;;;;;;0.60;0.60;;;13.80;53.10;;;;;;5057053;28;20499;-61
2022/04/21 08:12:44;;;;;;;1.88;0.47;;;13.80;52.60;;;;;;5053138;28;20037;-60
2022/04/21 08:15:23;;;;;;;0.88;0.85;;;13.90;52.00;;;;;;5082895;28;20055;-60
2022/04/21 08:17:50;;;;;;;1.15;0.77;;;13.90;52.00;;;;;;5060395;28;20078;-65
2022/04/21 08:20:15;;;;;;;0.90;0.50;;;14.00;52.20;;;;;;5069439;28;20130;-66
2022/04/21 08:22:41;;;;;;;0.60;0.60;;;14.10;52.20;;;;;;5058007;28;20039;-65
2022/04/21 08:33:37;;;;;;;0.65;0.57;;;14.40;51.60;;;;;;5061224;28;20048;-60
2022/04/21 08:36:03;;;;;;;0.63;0.63;;;14.40;51.50;;;;;;5093831;28;20029;-65
2022/04/21 08:38:30;;;;;;;0.60;0.60;;;14.50;51.10;;;;;;5071371;28;20025;-60
2022/04/21 08:41:03;;;;;;;0.90;0.90;;;14.60;50.70;;;;;;5069443;28;20341;-60
2022/04/21 08:43:29;;;;;;;0.88;0.68;;;14.60;50.40;;;;;;5074510;28;20029;-65
2022/04/21 08:45:56;;;;;;;0.60;0.40;;;14.70;50.30;;;;;;5065026;28;20059;-65
2022/04/21 08:48:24;;;;;;;1.00;0.60;;;14.70;50.30;;;;;;5073578;28;20079;-60
2022/04/21 08:50:51;;;;;;;1.25;0.77;;;14.70;49.80;;;;;;5068305;28;20083;-61
2022/04/21 08:53:22;;;;;;;0.65;0.65;;;14.70;49.70;;;;;;5061468;28;20037;-61
2022/04/21 08:55:48;;;;;;;0.87;0.60;;;14.80;49.60;;;;;;5059176;28;20025;-66
2022/04/21 08:58:14;;;;;;;0.90;0.68;;;14.90;49.70;;;;;;5066362;28;20029;-65
2022/04/21 09:00:44;;;;;;;1.08;0.70;;;14.90;49.30;;;;;;5066156;28;20280;-65
2022/04/21 09:03:12;;;;;;;1.25;0.80;;;14.90;49.40;;;;;;5064592;28;20025;-66
2022/04/21 09:05:38;;;;;;;0.85;0.50;;;15.00;49.60;;;;;;5096343;28;20586;-60
2022/04/21 09:08:04;;;;;;;1.08;0.77;;;15.10;49.40;;;;;;5050510;28;20021;-66
2022/04/21 09:10:35;;;;;;;1.58;0.80;;;15.20;48.90;;;;;;5051553;28;20684;-66
2022/04/21 09:13:02;;;;;;;0.88;0.77;;;15.20;48.90;;;;;;5058047;28;20368;-66
2022/04/21 09:15:31;;;;;;;2.72;0.45;;;15.30;48.30;;;;;;5065739;28;20141;-66
2022/04/21 09:18:02;;;;;;;0.55;0.55;;;15.30;47.90;;;;;;5059530;28;20412;-60
2022/04/21 09:20:35;;;;;;;2.08;0.80;;;15.40;48.00;;;;;;5054296;28;20142;-60
2022/04/21 09:23:04;;;;;;;2.63;0.82;;;15.40;47.50;;;;;;5055275;28;20020;-60
2022/04/21 09:25:31;;;;;;;0.50;0.45;;;15.50;47.50;;;;;;5064826;28;20606;-61
2022/04/21 09:27:58;;;;;;;0.68;0.47;;;15.60;47.50;;;;;;5054647;28;20653;-60
2022/04/21 09:30:25;;;;;;;0.80;0.50;;;15.70;46.80;;;;;;5058156;28;20027;-60
2022/04/21 09:32:56;;;;;;;0.80;0.60;;;15.80;47.00;;;;;;5080281;28;20078;-66
2022/04/21 09:35:27;;;;;;;0.93;0.73;;;15.90;46.50;;;;;;5066239;28;20032;-66
2022/04/21 09:37:55;;;;;;;0.50;0.50;;;16.00;46.10;;;;;;5052466;28;20029;-65
2022/04/21 09:40:26;;;;;;;0.43;0.43;;;16.00;46.20;;;;;;5059920;28;20032;-65
2022/04/21 09:43:01;;;;;;;0.50;0.50;;;16.10;46.50;;;;;;5080436;28;20167;-65
2022/04/21 09:48:30;;;;;;;0.60;0.60;;;16.30;45.70;;;;;;5063247;28;20922;-66
2022/04/21 09:51:11;;;;;;;2.25;0.77;;;16.30;45.40;;;;;;5066311;28;20086;-60
2022/04/21 09:53:54;;;;;;;0.52;0.52;;;16.40;45.50;;;;;;5065224;28;20075;-61
2022/04/21 09:56:37;;;;;;;0.55;0.50;;;16.50;45.30;;;;;;5061380;28;20028;-60
2022/04/21 09:59:08;;;;;;;0.57;0.57;;;16.60;45.20;;;;;;5066213;28;20770;-61
2022/04/21 10:01:42;;;;;;;0.35;0.35;;;16.60;45.00;;;;;;5084309;28;20037;-61
2022/04/21 10:04:11;;;;;;;0.60;0.60;;;16.70;45.00;;;;;;5066699;28;20382;-61
2022/04/21 10:06:41;;;;;;;0.57;0.50;;;16.70;45.30;;;;;;5065295;28;20683;-66
2022/04/21 10:09:07;;;;;;;1.90;0.60;;;16.90;45.20;;;;;;5060098;28;20063;-66
2022/04/21 10:11:34;;;;;;;0.40;0.40;;;17.00;44.90;;;;;;5093536;28;20089;-66
2022/04/21 10:13:59;;;;;;;0.70;0.70;;;17.00;44.90;;;;;;5064854;28;20115;-60
2022/04/21 10:16:28;;;;;;;0.77;0.65;;;17.20;44.20;;;;;;5067208;28;20115;-60
2022/04/21 10:18:59;;;;;;;0.60;0.60;;;17.30;44.00;;;;;;5071178;28;20035;-60
2022/04/21 10:21:37;;;;;;;0.30;0.30;;;17.30;43.40;;;;;;5068554;28;20020;-60
2022/04/21 10:24:05;;;;;;;0.43;0.43;;;17.40;43.50;;;;;;5063386;28;20037;-60
2022/04/21 10:26:39;;;;;;;0.63;0.57;;;17.50;43.10;;;;;;5084292;28;20074;-60
2022/04/21 10:29:12;;;;;;;0.38;0.32;;;17.50;42.90;;;;;;5083407;28;20028;-66
2022/04/21 10:31:57;;;;;;;0.60;0.60;;;17.60;42.70;;;;;;5055838;28;20036;-66
2022/04/21 10:34:34;;;;;;;0.50;0.30;;;17.70;42.20;;;;;;5054066;28;20029;-66
2022/04/21 10:37:07;;;;;;;0.52;0.52;;;17.80;42.20;;;;;;5065672;28;20036;-60
2022/04/21 10:39:33;;;;;;;0.73;0.68;;;17.90;42.50;;;;;;5061451;28;20032;-60
2022/04/21 10:42:15;;;;;;;0.73;0.70;;;18.00;42.90;;;;;;5062328;28;20040;-61
2022/04/21 10:44:52;;;;;;;1.08;0.57;;;18.20;42.20;;;;;;5055061;28;20381;-61
2022/04/21 10:47:31;;;;;;;0.70;0.70;;;18.30;42.00;;;;;;5051634;28;21037;-60
2022/04/21 10:50:01;;;;;;;0.60;0.60;;;18.40;41.70;;;;;;5065557;28;20064;-61
2022/04/21 10:58:34;;;;;;;1.10;0.95;;;18.70;41.30;;;;;;5066934;28;20031;-61
2022/04/21 11:01:09;;;;;;;1.00;0.93;;;18.80;41.30;;;;;;5057041;28;20457;-60
2022/04/21 11:03:38;;;;;;;0.85;0.70;;;18.90;41.10;;;;;;5076660;28;20384;-61
2022/04/21 11:06:11;;;;;;;0.40;0.40;;;18.90;40.90;;;;;;5069358;28;20024;-60
2022/04/21 11:08:37;;;;;;;1.05;0.82;;;19.00;40.90;;;;;;5082315;28;20060;-66
2022/04/21 11:11:04;;;;;;;0.77;0.77;;;19.10;40.00;;;;;;5066424;28;20068;-66
2022/04/21 11:13:51;;;;;;;1.05;0.60;;;19.20;40.10;;;;;;5062713;28;20020;-66
2022/04/21 11:16:41;;;;;;;0.77;0.75;;;19.30;39.60;;;;;;5070627;28;20032;-66
2022/04/21 11:19:29;;;;;;;1.00;0.65;;;19.30;39.40;;;;;;5077692;28;20028;-66
2022/04/21 11:22:05;;;;;;;1.08;0.82;;;19.10;39.20;;;;;;5081787;28;20033;-66
2022/04/21 11:24:59;;;;;;;0.85;0.70;;;18.90;39.20;;;;;;5081511;28;20027;-66
2022/04/21 11:27:28;;;;;;;1.00;0.90;;;18.90;39.50;;;;;;5086122;28;20081;-66
2022/04/21 11:30:07;;;;;;;0.85;0.70;;;18.90;39.90;;;;;;5057197;28;20082;-66
2022/04/21 11:32:33;;;;;;;0.95;0.85;;;19.10;39.90;;;;;;5063900;28;20044;-66
2022/04/21 11:35:01;;;;;;;0.70;0.70;;;19.20;39.90;;;;;;5060367;28;20028;-66
2022/04/21 11:37:52;;;;;;;1.75;0.68;;;19.40;39.60;;;;;;5077757;28;20073;-66
2022/04/21 11:40:45;;;;;;;0.45;0.45;;;19.50;39.40;;;;;;5069659;28;20035;-66
2022/04/21 11:43:10;;;;;;;;;;;19.60;38.90;;;;;;5055799;28;20121;-66
2022/04/21 11:45:38;;;;;;;0.95;0.85;;;19.70;38.30;;;;;;5066964;28;19970;-66
2022/04/21 11:48:15;;;;;;;0.77;0.70;;;19.80;38.50;;;;;;5091807;28;20040;-66
2022/04/21 11:50:46;;;;;;;1.00;0.73;;;19.80;38.30;;;;;;5052215;28;20472;-65
2022/04/21 11:53:20;;;;;;;1.02;0.40;;;19.80;38.50;;;;;;5058252;28;20372;-65
2022/04/21 11:55:47;;;;;;;0.60;0.50;;;19.80;38.90;;;;;;5062089;28;20063;-65
2022/04/21 11:58:38;;;;;;;0.45;0.45;;;19.80;38.60;;;;;;5064582;28;20128;-65
2022/04/21 12:06:48;;;;;;;0.57;0.52;;;20.40;38.10;;;;;;5063270;28;20052;-65
2022/04/21 12:09:17;;;;;;;0.50;0.50;;;20.70;38.10;;;;;;5061746;28;20036;-66
2022/04/21 12:11:57;;;;;;;0.90;0.70;;;20.90;37.90;;;;;;5067004;28;20196;-65
2022/04/21 12:14:24;;;;;;;0.50;0.50;;;21.30;37.40;;;;;;5057874;28;20390;-61
2022/04/21 12:16:56;;;;;;;2.35;0.82;;;21.50;36.70;;;;;;5092314;28;20016;-65
2022/04/21 12:19:35;;;;;;;;;;;21.50;36.40;;;;;;5062923;28;20086;-65
2022/04/21 12:22:13;;;;;;;0.80;0.80;;;21.40;36.10;;;;;;5062917;28;19915;-66
2022/04/21 12:24:45;;;;;;;0.75;0.75;;;21.30;36.50;;;;;;5069561;28;20089;-65
2022/04/21 12:27:19;;;;;;;0.85;0.85;;;21.50;36.50;;;;;;5060262;28;20029;-65
2022/04/21 12:29:48;;;;;;;0.65;0.65;;;21.50;36.20;;;;;;5053214;28;20037;-65
2022/04/21 12:32:26;;;;;;;1.70;1.17;;;21.60;36.00;;;;;;5084355;28;20043;-65
2022/04/21 12:34:56;;;;;;;1.35;0.80;;;21.70;36.10;;;;;;5053901;28;20060;-66
2022/04/21 12:37:36;;;;;;;0.70;0.60;;;21.80;36.30;;;;;;5051791;28;20376;-60
2022/04/21 12:40:05;;;;;;;1.42;0.73;;;21.90;36.10;;;;;;5052059;28;20070;-66
2022/04/21 12:42:32;;;;;;;0.75;0.70;;;21.90;35.70;;;;;;5085198;28;20021;-66
2022/04/21 12:44:58;;;;;;;1.30;0.77;;;22.00;36.00;;;;;;5061372;28;20032;-65
2022/04/21 12:47:24;;;;;;;2.50;1.08;;;22.00;35.80;;;;;;5051971;28;20033;-66
2022/04/21 12:50:03;;;;;;;1.10;1.00;;;22.00;36.00;;;;;;5051231;28;20428;-65
2022/04/21 12:52:28;;;;;;;1.25;0.75;;;22.00;36.40;;;;;;5050940;28;20049;-65
2022/04/21 12:54:54;;;;;;;1.30;1.10;;;22.00;36.50;;;;;;5052069;28;20024;-66
2022/04/21 12:57:20;;;;;;;0.82;0.73;;;22.00;36.00;;;;;;5061906;28;20033;-66
2022/04/21 12:59:46;;;;;;;0.82;0.82;;;22.00;36.20;;;;;;5067811;28;20041;-66
2022/04/21 13:02:13;;;;;;;1.10;0.80;;;22.10;36.50;;;;;;5065851;28;20380;-66
2022/04/21 13:04:39;;;;;;;0.90;0.70;;;22.10;36.60;;;;;;5070880;28;20032;-66
2022/04/21 13:07:07;;;;;;;1.20;1.10;;;22.10;36.10;;;;;;5071033;28;20043;-66
2022/04/21 13:09:33;;;;;;;1.10;0.93;;;22.00;36.20;;;;;;5068118;28;20043;-66
2022/04/21 13:11:59;;;;;;;0.77;0.75;;;21.80;36.60;;;;;;5051182;28;20033;-66
2022/04/21 13:14:25;;;;;;;1.23;1.02;;;21.70;36.80;;;;;;5070362;28;20021;-66
2022/04/21 13:16:50;;;;;;;1.10;0.77;;;21.60;36.80;;;;;;5060356;28;20428;-59
2022/04/21 13:19:16;;;;;;;0.80;0.73;;;21.40;37.10;;;;;;5059388;28;20029;-60
2022/04/21 13:21:57;;;;;;;1.35;1.13;;;21.30;37.50;;;;;;5065316;28;20037;-65
2022/04/21 13:24:23;;;;;;;0.80;0.80;;;21.40;36.70;;;;;;5058773;28;20113;-60
2022/04/21 13:26:50;;;;;;;1.20;0.70;;;21.60;36.70;;;;;;5059436;28;20483;-60
2022/04/21 13:29:15;;;;;;;1.20;1.10;;;21.80;36.80;;;;;;5061910;28;20028;-60
2022/04/21 13:34:26;;;;;;;0.65;0.65;;;22.20;36.20;;;;;;5074468;28;20118;-60
2022/04/21 13:40:23;;;;;;;0.55;0.55;;;22.40;35.30;;;;;;5091479;27;20139;-60
2022/04/21 13:42:49;;;;;;;0.73;0.73;;;22.50;36.10;;;;;;5042343;28;20032;-61
2022/04/21 13:45:15;;;;;;;0.57;0.57;;;22.60;35.90;;;;;;5045984;28;20028;-66
2022/04/21 15:27:20;;;;;;;1.25;0.93;;;22.00;38.70;;;;;;5118190;27;20316;-66
2022/04/21 15:29:46;;;;;;;1.00;0.77;;;21.90;39.90;;;;;;5105571;28;20568;-66
2022/04/21 15:32:13;;;;;;;1.13;1.02;;;21.90;40.40;;;;;;5105897;28;20085;-66
2022/04/21 15:34:38;;;;;;;1.23;1.00;;;22.00;40.50;;;;;;5106836;28;20039;-66